Time;durP1;ratioP1;P1;durP2;ratioP2;P2;SDS_P1;SDS_P2;PMS_P1;PMS_P2;Temp;Humidity;BMP_temperature;BMP_pressure;BME280_temperature;BME280_humidity;BME280_pressure;Samples;Min_cycle;Max_cycle;Signal;HPM_P1;HPM_P2
2023/11/28 00:00:41;;;;;;;;;;;;;;;-144.99;100.00;52619.31;5022166;28;19926;-69
2023/11/28 00:03:09;;;;;;;;;;;;;;;-144.99;100.00;52643.78;5020164;28;20445;-69
2023/11/28 00:05:36;;;;;;;;;;;;;;;-144.99;100.00;52651.94;5033694;28;19929;-69
2023/11/28 00:08:03;;;;;;;;;;;;;;;-144.99;100.00;52635.63;5039707;28;19995;-69
2023/11/28 00:10:29;;;;;;;;;;;;;;;-144.99;100.00;52600.97;5035562;28;20394;-69
2023/11/28 00:12:56;;;;;;;;;;;;;;;-144.99;100.00;52658.03;5030318;28;19958;-69
2023/11/28 00:15:23;;;;;;;;;;;;;;;-144.99;100.00;52631.53;5035378;28;20790;-70
2023/11/28 00:17:49;;;;;;;;;;;;;;;-144.99;100.00;52629.50;5024915;28;19928;-67
2023/11/28 00:20:17;;;;;;;;;;;;;;;-144.99;100.00;52635.63;5020711;28;19926;-68
2023/11/28 00:22:44;;;;;;;;;;;;;;;-144.99;100.00;52598.94;5026944;28;19929;-67
2023/11/28 00:25:10;;;;;;;;;;;;;;;-144.99;100.00;52627.47;5021169;28;19926;-67
2023/11/28 00:27:37;;;;;;;;;;;;;;;-144.99;100.00;52688.63;5030321;28;19987;-66
2023/11/28 00:30:04;;;;;;;;;;;;;;;-144.99;100.00;52619.31;5023667;28;19964;-66
2023/11/28 00:32:30;;;;;;;;;;;;;;;-144.99;100.00;52629.50;5036218;28;19928;-65
2023/11/28 00:34:57;;;;;;;;;;;;;;;-144.99;100.00;52627.47;5026484;28;20084;-65
2023/11/28 00:37:24;;;;;;;;;;;;;;;-144.99;100.00;52639.69;5034381;28;19929;-65
2023/11/28 00:39:51;;;;;;;;;;;;;;;-144.99;100.00;52607.09;5043725;28;19932;-64
2023/11/28 00:42:18;;;;;;;;;;;;;;;-144.99;100.00;52635.63;5039531;28;19959;-64
2023/11/28 00:44:44;;;;;;;;;;;;;;;-144.99;100.00;52631.53;5041164;28;19926;-65
2023/11/28 00:47:11;;;;;;;;;;;;;;;-144.99;100.00;52611.16;5037531;28;19925;-66
2023/11/28 00:49:41;;;;;;;;;;;;;;;-144.99;100.00;52629.50;5033562;28;19979;-65
2023/11/28 00:52:07;;;;;;;;;;;;;;;-144.99;100.00;52635.63;5037533;28;19924;-65
2023/11/28 00:54:36;;;;;;;;;;;;;;;-144.99;100.00;52631.53;5041012;28;20398;-66
2023/11/28 00:57:03;;;;;;;;;;;;;;;-144.99;100.00;52627.47;5027066;28;19925;-65
2023/11/28 00:59:30;;;;;;;;;;;;;;;-144.99;100.00;52635.63;5040488;28;20023;-65
2023/11/28 01:01:57;;;;;;;;;;;;;;;-144.99;100.00;52611.16;5058997;28;19929;-65
2023/11/28 01:04:23;;;;;;;;;;;;;;;-144.99;100.00;52629.50;5025495;28;19933;-67
2023/11/28 01:06:50;;;;;;;;;;;;;;;-144.99;100.00;52619.31;5040296;28;20379;-66
2023/11/28 01:09:16;;;;;;;;;;;;;;;-144.99;100.00;52607.09;5035764;28;19925;-65
2023/11/28 01:11:44;;;;;;;;;;;;;;;-144.99;100.00;52637.66;5029292;28;19932;-65
2023/11/28 01:14:11;;;;;;;;;;;;;;;-144.99;100.00;52600.97;5019443;28;19969;-65
2023/11/28 01:16:37;;;;;;;;;;;;;;;-144.99;100.00;52662.13;5026949;28;19968;-64
2023/11/28 01:19:04;;;;;;;;;;;;;;;-144.99;100.00;52619.31;5024376;28;20019;-64
2023/11/28 01:21:30;;;;;;;;;;;;;;;-144.99;100.00;52603.00;5033127;28;19925;-64
2023/11/28 01:23:57;;;;;;;;;;;;;;;-144.99;100.00;52651.94;5026972;28;20052;-64
2023/11/28 01:26:23;;;;;;;;;;;;;;;-144.99;100.00;52641.72;5031272;28;19929;-65
2023/11/28 01:28:51;;;;;;;;;;;;;;;-144.99;100.00;52570.38;5032918;28;19935;-65
2023/11/28 01:31:18;;;;;;;;;;;;;;;-144.99;100.00;52603.00;5025877;28;19929;-65
2023/11/28 01:33:44;;;;;;;;;;;;;;;-144.99;100.00;52627.47;5024284;28;19965;-65
2023/11/28 01:36:11;;;;;;;;;;;;;;;-144.99;100.00;52594.84;5035365;28;19936;-65
2023/11/28 01:38:38;;;;;;;;;;;;;;;-144.99;100.00;52570.38;5024314;28;20375;-65
2023/11/28 01:41:04;;;;;;;;;;;;;;;-144.99;100.00;52635.63;5041294;28;19947;-65
2023/11/28 01:43:31;;;;;;;;;;;;;;;-144.99;100.00;52631.53;5019124;28;19995;-66
2023/11/28 01:46:00;;;;;;;;;;;;;;;-144.99;100.00;52627.47;5031136;28;19971;-67
2023/11/28 01:48:26;;;;;;;;;;;;;;;-144.99;100.00;52651.94;5033878;28;20025;-67
2023/11/28 01:50:53;;;;;;;;;;;;;;;-144.99;100.00;52627.47;5037294;28;19933;-66
2023/11/28 01:53:20;;;;;;;;;;;;;;;-144.99;100.00;52656.00;5029107;28;19925;-67
2023/11/28 01:55:47;;;;;;;;;;;;;;;-144.99;100.00;52603.00;5030821;28;19926;-67
2023/11/28 01:58:14;;;;;;;;;;;;;;;-144.99;100.00;52645.81;5023161;28;19995;-66
2023/11/28 02:00:40;;;;;;;;;;;;;;;-144.99;100.00;52647.84;5023233;28;19925;-66
2023/11/28 02:03:10;;;;;;;;;;;;;;;-144.99;100.00;52643.78;5028368;28;19925;-66
2023/11/28 02:05:38;;;;;;;;;;;;;;;-144.99;100.00;52635.63;5020625;28;19925;-67
2023/11/28 02:08:06;;;;;;;;;;;;;;;-144.99;100.00;52649.88;5033131;28;19925;-67
2023/11/28 02:10:35;;;;;;;;;;;;;;;-144.99;100.00;52656.00;5027168;28;19967;-69
2023/11/28 02:13:02;;;;;;;;;;;;;;;-144.99;100.00;52627.47;5027827;28;19929;-70
2023/11/28 02:15:38;;;;;;;;;;;;;;;-144.99;100.00;52615.25;5036399;28;19925;-69
2023/11/28 02:18:05;;;;;;;;;;;;;;;-144.99;100.00;52631.53;5050969;28;19928;-70
2023/11/28 02:20:33;;;;;;;;;;;;;;;-144.99;100.00;52619.31;5037718;28;19929;-69
2023/11/28 02:23:00;;;;;;;;;;;;;;;-144.99;100.00;52619.31;5032741;28;19929;-69
2023/11/28 02:25:28;;;;;;;;;;;;;;;-144.99;100.00;52603.00;5024969;28;20302;-67
2023/11/28 02:27:55;;;;;;;;;;;;;;;-144.99;100.00;52582.63;5035488;28;19925;-68
2023/11/28 02:30:22;;;;;;;;;;;;;;;-144.99;100.00;52647.84;5021216;28;19976;-66
2023/11/28 02:32:49;;;;;;;;;;;;;;;-144.99;100.00;52607.09;5040705;28;20209;-65
2023/11/28 02:35:15;;;;;;;;;;;;;;;-144.99;100.00;52623.38;5024754;28;20018;-65
2023/11/28 02:37:42;;;;;;;;;;;;;;;-144.99;100.00;52594.84;5030686;28;19929;-65
2023/11/28 02:40:09;;;;;;;;;;;;;;;-144.99;100.00;52586.69;5015523;28;19965;-65
2023/11/28 02:42:35;;;;;;;;;;;;;;;-144.99;100.00;52615.25;5031070;28;19925;-65
2023/11/28 02:45:03;;;;;;;;;;;;;;;-144.99;100.00;52590.78;5021764;28;20181;-66
2023/11/28 02:47:30;;;;;;;;;;;;;;;-144.99;100.00;52594.84;5025469;28;19979;-65
2023/11/28 02:49:56;;;;;;;;;;;;;;;-144.99;100.00;52619.31;5030222;28;19929;-66
2023/11/28 02:52:23;;;;;;;;;;;;;;;-144.99;100.00;52639.69;5036542;28;19948;-66
2023/11/28 02:54:49;;;;;;;;;;;;;;;-144.99;100.00;52629.50;5035542;28;20267;-63
2023/11/28 02:57:16;;;;;;;;;;;;;;;-144.99;100.00;52623.38;5035673;28;19963;-66
2023/11/28 02:59:42;;;;;;;;;;;;;;;-144.99;100.00;52607.09;5018162;28;19961;-66
2023/11/28 03:02:10;;;;;;;;;;;;;;;-144.99;100.00;52623.38;5023064;28;20386;-65
2023/11/28 03:04:38;;;;;;;;;;;;;;;-144.99;100.00;52631.53;5021122;28;19976;-66
2023/11/28 03:07:04;;;;;;;;;;;;;;;-144.99;100.00;52631.53;5017448;28;19929;-66
2023/11/28 03:09:31;;;;;;;;;;;;;;;-144.99;100.00;52627.47;5028442;28;20453;-67
2023/11/28 03:11:57;;;;;;;;;;;;;;;-144.99;100.00;52598.94;5037145;28;19937;-67
2023/11/28 03:14:26;;;;;;;;;;;;;;;-144.99;100.00;52647.84;5037504;28;20391;-71
2023/11/28 03:16:52;;;;;;;;;;;;;;;-144.99;100.00;52615.25;5029592;28;19929;-70
2023/11/28 03:19:20;;;;;;;;;;;;;;;-144.99;100.00;52611.16;5026399;28;20421;-70
2023/11/28 03:21:47;;;;;;;;;;;;;;;-144.99;100.00;52615.25;5033815;28;19933;-70
2023/11/28 03:24:14;;;;;;;;;;;;;;;-144.99;100.00;52623.38;5031354;28;19925;-70
2023/11/28 03:26:40;;;;;;;;;;;;;;;-144.99;100.00;52639.69;5031825;28;19925;-70
2023/11/28 03:29:07;;;;;;;;;;;;;;;-144.99;100.00;52639.69;5034211;28;20315;-70
2023/11/28 03:31:33;;;;;;;;;;;;;;;-144.99;100.00;52611.16;5033633;28;19929;-70
2023/11/28 03:34:00;;;;;;;;;;;;;;;-144.99;100.00;52623.38;5030754;28;19980;-71
2023/11/28 03:36:28;;;;;;;;;;;;;;;-144.99;100.00;52594.84;5035790;28;19951;-70
2023/11/28 03:38:54;;;;;;;;;;;;;;;-144.99;100.00;52617.28;5026651;28;19953;-70
2023/11/28 03:41:21;;;;;;;;;;;;;;;-144.99;100.00;52607.09;5031716;28;20063;-70
2023/11/28 03:43:47;;;;;;;;;;;;;;;-144.99;100.00;52619.31;5027519;28;19987;-70
2023/11/28 03:46:14;;;;;;;;;;;;;;;-144.99;100.00;52615.25;5037465;28;20061;-66
2023/11/28 03:48:40;;;;;;;;;;;;;;;-144.99;100.00;52645.81;5029422;28;20283;-65
2023/11/28 03:51:07;;;;;;;;;;;;;;;-144.99;100.00;52592.81;5024892;28;19925;-66
2023/11/28 03:53:36;;;;;;;;;;;;;;;-144.99;100.00;52586.69;5036378;28;19964;-69
2023/11/28 03:56:05;;;;;;;;;;;;;;;-144.99;100.00;52611.16;5035330;28;19925;-69
2023/11/28 03:58:31;;;;;;;;;;;;;;;-144.99;100.00;52603.00;5023285;28;20358;-68
2023/11/28 04:00:58;;;;;;;;;;;;;;;-144.99;100.00;52635.63;5025213;28;19983;-69
2023/11/28 04:03:26;;;;;;;;;;;;;;;-144.99;100.00;52619.31;5025946;28;19925;-68
2023/11/28 04:05:52;;;;;;;;;;;;;;;-144.99;100.00;52590.78;5030556;28;19940;-68
2023/11/28 04:08:19;;;;;;;;;;;;;;;-144.99;100.00;52611.16;5032588;28;19968;-69
2023/11/28 04:10:47;;;;;;;;;;;;;;;-144.99;100.00;52623.38;5027437;28;19995;-68
2023/11/28 04:13:13;;;;;;;;;;;;;;;-144.99;100.00;52631.53;5026385;28;19974;-67
2023/11/28 04:15:40;;;;;;;;;;;;;;;-144.99;100.00;52627.47;5024640;28;19937;-68
2023/11/28 04:18:06;;;;;;;;;;;;;;;-144.99;100.00;52619.31;5033670;28;20389;-68
2023/11/28 04:20:33;;;;;;;;;;;;;;;-144.99;100.00;52607.09;5017719;28;20277;-68
2023/11/28 04:22:59;;;;;;;;;;;;;;;-144.99;100.00;52611.16;5040064;28;19968;-68
2023/11/28 04:25:26;;;;;;;;;;;;;;;-144.99;100.00;52598.94;5021960;28;19925;-69
2023/11/28 04:27:54;;;;;;;;;;;;;;;-144.99;100.00;52623.38;5034345;28;20221;-69
2023/11/28 04:30:20;;;;;;;;;;;;;;;-144.99;100.00;52623.38;5031725;28;19926;-70
2023/11/28 04:32:47;;;;;;;;;;;;;;;-144.99;100.00;52609.13;5030737;28;20372;-69
2023/11/28 04:35:13;;;;;;;;;;;;;;;-144.99;100.00;52619.31;5024912;28;19957;-69
2023/11/28 04:37:40;;;;;;;;;;;;;;;-144.99;100.00;52603.00;5035832;28;19976;-67
2023/11/28 04:40:07;;;;;;;;;;;;;;;-144.99;100.00;52615.25;5022082;28;19925;-68
2023/11/28 04:42:34;;;;;;;;;;;;;;;-144.99;100.00;52627.47;5029304;28;19929;-67
2023/11/28 04:45:01;;;;;;;;;;;;;;;-144.99;100.00;52619.31;5035022;28;19929;-66
2023/11/28 04:47:28;;;;;;;;;;;;;;;-144.99;100.00;52586.69;5031412;28;19932;-67
2023/11/28 04:49:54;;;;;;;;;;;;;;;-144.99;100.00;52596.88;5026944;28;20177;-67
2023/11/28 04:52:21;;;;;;;;;;;;;;;-144.99;100.00;52631.53;5018629;28;19967;-68
2023/11/28 04:54:47;;;;;;;;;;;;;;;-144.99;100.00;52611.16;5028840;28;20302;-67
2023/11/28 04:57:14;;;;;;;;;;;;;;;-144.99;100.00;52631.53;5021591;28;20091;-67
2023/11/28 04:59:41;;;;;;;;;;;;;;;-144.99;100.00;52674.34;5031588;28;20375;-67
2023/11/28 05:02:09;;;;;;;;;;;;;;;-144.99;100.00;52660.09;5034800;28;19931;-69
2023/11/28 05:04:35;;;;;;;;;;;;;;;-144.99;100.00;52617.28;5032486;28;20377;-69
2023/11/28 05:07:03;;;;;;;;;;;;;;;-144.99;100.00;52637.66;5032985;28;19937;-68
2023/11/28 05:09:29;;;;;;;;;;;;;;;-144.99;100.00;52615.25;5032589;28;20019;-67
2023/11/28 05:11:56;;;;;;;;;;;;;;;-144.99;100.00;52598.94;5024166;28;20011;-67
2023/11/28 05:14:22;;;;;;;;;;;;;;;-144.99;100.00;52635.63;5030718;28;19925;-67
2023/11/28 05:16:49;;;;;;;;;;;;;;;-144.99;100.00;52615.25;5029482;28;19956;-67
2023/11/28 05:19:17;;;;;;;;;;;;;;;-144.99;100.00;52586.69;5036422;28;19925;-67
2023/11/28 05:21:43;;;;;;;;;;;;;;;-144.99;100.00;52631.53;5032163;28;20022;-70
2023/11/28 05:24:10;;;;;;;;;;;;;;;-144.99;100.00;52643.78;5038236;28;20375;-70
2023/11/28 05:26:37;;;;;;;;;;;;;;;-144.99;100.00;52607.09;5013924;28;19929;-68
2023/11/28 05:29:03;;;;;;;;;;;;;;;-144.99;100.00;52607.09;5012475;28;19925;-76
2023/11/28 05:31:30;;;;;;;;;;;;;;;-144.99;100.00;52639.69;5031174;28;19928;-77
2023/11/28 05:33:56;;;;;;;;;;;;;;;-144.99;100.00;52656.00;5030503;28;19952;-76
2023/11/28 05:36:26;;;;;;;;;;;;;;;-144.99;100.00;52627.47;5029967;28;19972;-76
2023/11/28 05:38:52;;;;;;;;;;;;;;;-144.99;100.00;52615.25;5027779;28;19932;-76
2023/11/28 05:41:19;;;;;;;;;;;;;;;-144.99;100.00;52611.16;5028380;28;19930;-76
2023/11/28 05:43:46;;;;;;;;;;;;;;;-144.99;100.00;52619.31;5029347;28;19937;-76
2023/11/28 05:46:12;;;;;;;;;;;;;;;-144.99;100.00;52639.69;5023725;28;20410;-76
2023/11/28 05:48:39;;;;;;;;;;;;;;;-144.99;100.00;52623.38;5043974;28;19925;-76
2023/11/28 05:51:05;;;;;;;;;;;;;;;-144.99;100.00;52584.66;5047037;28;20365;-76
2023/11/28 05:53:34;;;;;;;;;;;;;;;-144.99;100.00;52664.16;5041350;28;20351;-75
2023/11/28 05:56:00;;;;;;;;;;;;;;;-144.99;100.00;52631.53;5036246;28;19988;-75
2023/11/28 05:58:27;;;;;;;;;;;;;;;-144.99;100.00;52611.16;5044448;28;19943;-76
2023/11/28 06:00:54;;;;;;;;;;;;;;;-144.99;100.00;52594.84;5032260;28;19925;-75
2023/11/28 06:03:21;;;;;;;;;;;;;;;-144.99;100.00;52688.63;5038527;28;19925;-75
2023/11/28 06:05:48;;;;;;;;;;;;;;;-144.99;100.00;52635.63;5042537;28;20204;-75
2023/11/28 06:08:14;;;;;;;;;;;;;;;-144.99;100.00;52631.53;5035163;28;19925;-75
2023/11/28 06:10:42;;;;;;;;;;;;;;;-144.99;100.00;52627.47;5037244;28;19991;-72
2023/11/28 06:13:09;;;;;;;;;;;;;;;-144.99;100.00;52623.38;5005591;28;20012;-70
2023/11/28 06:15:35;;;;;;;;;;;;;;;-144.99;100.00;52639.69;5028314;28;19972;-69
2023/11/28 06:18:02;;;;;;;;;;;;;;;-144.99;100.00;52613.19;5027025;28;20710;-69
2023/11/28 06:20:28;;;;;;;;;;;;;;;-144.99;100.00;52615.25;5018644;28;19933;-69
2023/11/28 06:22:55;;;;;;;;;;;;;;;-144.99;100.00;52668.22;5020620;28;19987;-69
2023/11/28 06:25:21;;;;;;;;;;;;;;;-144.99;100.00;52615.25;5021332;28;20982;-69
2023/11/28 06:27:50;;;;;;;;;;;;;;;-144.99;100.00;52635.63;5029022;28;20479;-69
2023/11/28 06:30:16;;;;;;;;;;;;;;;-144.99;100.00;52639.69;5029335;28;20434;-69
2023/11/28 06:32:43;;;;;;;;;;;;;;;-144.99;100.00;52621.34;5027339;28;19961;-69
2023/11/28 06:35:10;;;;;;;;;;;;;;;-144.99;100.00;52623.38;5031623;28;20384;-69
2023/11/28 06:37:38;;;;;;;;;;;;;;;-144.99;100.00;52639.69;5039093;28;20361;-69
2023/11/28 06:40:04;;;;;;;;;;;;;;;-144.99;100.00;52623.38;4677967;28;9999808;-69
2023/11/28 06:42:31;;;;;;;;;;;;;;;-144.99;100.00;52623.38;5024825;28;19936;-68
2023/11/28 06:44:59;;;;;;;;;;;;;;;-144.99;100.00;52639.69;5033116;28;19928;-68
2023/11/28 06:47:25;;;;;;;;;;;;;;;-144.99;100.00;52611.16;5029295;28;19940;-68
2023/11/28 06:49:52;;;;;;;;;;;;;;;-144.99;100.00;52641.72;5014096;28;20045;-68
2023/11/28 06:52:18;;;;;;;;;;;;;;;-144.99;100.00;52619.31;5022724;28;20363;-69
2023/11/28 06:54:45;;;;;;;;;;;;;;;-144.99;100.00;52647.84;5026907;28;19937;-68
2023/11/28 06:57:12;;;;;;;;;;;;;;;-144.99;100.00;52603.00;5020718;28;19929;-68
2023/11/28 06:59:38;;;;;;;;;;;;;;;-144.99;100.00;52607.09;5029697;28;19933;-68
2023/11/28 07:02:07;;;;;;;;;;;;;;;-144.99;100.00;52590.78;5027008;28;20467;-69
2023/11/28 07:04:33;;;;;;;;;;;;;;;-144.99;100.00;52590.78;5026390;28;19932;-69
2023/11/28 07:07:00;;;;;;;;;;;;;;;-144.99;100.00;52611.16;5025684;28;19930;-69
2023/11/28 07:09:26;;;;;;;;;;;;;;;-144.99;100.00;52651.94;5031423;28;19976;-68
2023/11/28 07:11:53;;;;;;;;;;;;;;;-144.99;100.00;52590.78;5013823;28;19933;-69
2023/11/28 07:14:21;;;;;;;;;;;;;;;-144.99;100.00;52631.53;5026123;28;20038;-69
2023/11/28 07:16:48;;;;;;;;;;;;;;;-144.99;100.00;52647.84;5016801;28;20308;-69
2023/11/28 07:19:15;;;;;;;;;;;;;;;-144.99;100.00;52627.47;5017496;28;20036;-69
2023/11/28 07:21:42;;;;;;;;;;;;;;;-144.99;100.00;52623.38;5030634;28;19925;-69
2023/11/28 07:24:08;;;;;;;;;;;;;;;-144.99;100.00;52643.78;5023082;28;19925;-70
2023/11/28 07:26:35;;;;;;;;;;;;;;;-144.99;100.00;52627.47;5020968;28;19929;-71
2023/11/28 07:29:01;;;;;;;;;;;;;;;-144.99;100.00;52627.47;5021641;28;19936;-68
2023/11/28 07:31:28;;;;;;;;;;;;;;;-144.99;100.00;52645.81;5024496;28;20055;-69
2023/11/28 07:33:55;;;;;;;;;;;;;;;-144.99;100.00;52611.16;5016136;28;19929;-70
2023/11/28 07:36:23;;;;;;;;;;;;;;;-144.99;100.00;52639.69;5030118;28;19956;-70
2023/11/28 07:38:50;;;;;;;;;;;;;;;-144.99;100.00;52653.97;5017189;28;20335;-70
2023/11/28 07:41:16;;;;;;;;;;;;;;;-144.99;100.00;52611.16;5031982;28;19983;-69
2023/11/28 07:43:44;;;;;;;;;;;;;;;-144.99;100.00;52627.47;5021531;28;20246;-69
2023/11/28 07:46:10;;;;;;;;;;;;;;;-144.99;100.00;52649.88;5037809;28;19924;-70
2023/11/28 07:48:37;;;;;;;;;;;;;;;-144.99;100.00;52656.00;5029837;28;19936;-69
2023/11/28 07:51:04;;;;;;;;;;;;;;;-144.99;100.00;52639.69;5014632;28;19983;-69
2023/11/28 07:53:32;;;;;;;;;;;;;;;-144.99;100.00;52635.63;5019419;28;20454;-69
2023/11/28 07:55:58;;;;;;;;;;;;;;;-144.99;100.00;52639.69;5024953;28;20403;-70
2023/11/28 07:58:25;;;;;;;;;;;;;;;-144.99;100.00;52647.84;5021771;28;19937;-70
2023/11/28 08:00:52;;;;;;;;;;;;;;;-144.99;100.00;52668.22;5026456;28;19992;-70
2023/11/28 08:03:18;;;;;;;;;;;;;;;-144.99;100.00;52684.53;5039070;28;19928;-70
2023/11/28 08:05:45;;;;;;;;;;;;;;;-144.99;100.00;52603.00;5033990;28;19929;-69
2023/11/28 08:08:12;;;;;;;;;;;;;;;-144.99;100.00;52605.03;5030722;28;19929;-69
2023/11/28 08:10:40;;;;;;;;;;;;;;;-144.99;100.00;52639.69;5032422;28;19936;-69
2023/11/28 08:13:06;;;;;;;;;;;;;;;-144.99;100.00;52619.31;5020550;28;20414;-68
2023/11/28 08:15:33;;;;;;;;;;;;;;;-144.99;100.00;52611.16;5031883;28;19925;-68
2023/11/28 08:17:59;;;;;;;;;;;;;;;-144.99;100.00;52643.78;5017149;28;19983;-68
2023/11/28 08:20:26;;;;;;;;;;;;;;;-144.99;100.00;52631.53;5033950;28;19929;-68
2023/11/28 08:22:53;;;;;;;;;;;;;;;-144.99;100.00;52643.78;5032916;28;19971;-69
2023/11/28 08:25:19;;;;;;;;;;;;;;;-144.99;100.00;52656.00;5026231;28;20029;-69
2023/11/28 08:27:48;;;;;;;;;;;;;;;-144.99;100.00;52635.63;5022503;28;19964;-69
2023/11/28 08:30:15;;;;;;;;;;;;;;;-144.99;100.00;52639.69;5031524;28;20004;-69
2023/11/28 08:32:41;;;;;;;;;;;;;;;-144.99;100.00;52639.69;5034613;28;19933;-69
2023/11/28 08:35:08;;;;;;;;;;;;;;;-144.99;100.00;52623.38;5027369;28;19935;-68
2023/11/28 08:37:35;;;;;;;;;;;;;;;-144.99;100.00;52635.63;5035162;28;20404;-68
2023/11/28 08:40:03;;;;;;;;;;;;;;;-144.99;100.00;52653.97;5023048;28;19933;-69
2023/11/28 08:42:30;;;;;;;;;;;;;;;-144.99;100.00;52607.09;5033921;28;19999;-69
2023/11/28 08:44:57;;;;;;;;;;;;;;;-144.99;99.83;52574.47;5028169;28;19929;-69
2023/11/28 08:47:24;;;;;;;;;;;;;;;-144.99;99.72;52635.63;5038028;28;19938;-69
2023/11/28 08:49:50;;;;;;;;;;;;;;;-144.99;99.53;52643.78;5037644;28;19932;-68
2023/11/28 08:52:17;;;;;;;;;;;;;;;-144.99;98.90;52586.69;5033522;28;19976;-68
2023/11/28 08:54:44;;;;;;;;;;;;;;;-144.99;99.01;52629.50;5023386;28;20588;-70
2023/11/28 08:57:13;;;;;;;;;;;;;;;-144.99;98.77;52615.25;5017738;28;20358;-69
2023/11/28 08:59:40;;;;;;;;;;;;;;;-144.99;98.61;52649.88;5020897;28;19996;-69
2023/11/28 09:02:08;;;;;;;;;;;;;;;-144.99;98.63;52607.09;5036833;28;19928;-69
2023/11/28 09:04:34;;;;;;;;;;;;;;;-144.99;98.44;52619.31;5026431;28;19933;-70
2023/11/28 09:07:01;;;;;;;;;;;;;;;-144.99;98.00;52643.78;5040622;28;19960;-70
2023/11/28 09:09:28;;;;;;;;;;;;;;;-144.99;97.53;52647.84;5029844;28;19933;-68
2023/11/28 09:11:54;;;;;;;;;;;;;;;-144.99;97.39;52623.38;5040338;28;19956;-69
2023/11/28 09:14:21;;;;;;;;;;;;;;;-144.99;96.72;52668.22;5039835;28;19925;-68
2023/11/28 09:16:48;;;;;;;;;;;;;;;-144.99;96.42;52635.63;5040988;28;19929;-69
2023/11/28 09:19:15;;;;;;;;;;;;;;;-144.99;95.88;52643.78;5040700;28;19929;-70
2023/11/28 09:21:42;;;;;;;;;;;;;;;-144.99;95.48;52660.09;5042830;28;20186;-69
2023/11/28 09:24:08;;;;;;;;;;;;;;;-144.99;95.18;52656.00;5042899;28;19982;-69
2023/11/28 09:26:35;;;;;;;;;;;;;;;-144.99;94.43;52627.47;5030203;28;19983;-68
2023/11/28 09:29:02;;;;;;;;;;;;;;;-144.99;94.34;52633.59;5038308;28;19933;-69
2023/11/28 09:31:28;;;;;;;;;;;;;;;-144.99;93.46;52586.69;5030078;28;19936;-68
2023/11/28 09:33:55;;;;;;;;;;;;;;;-144.99;93.42;52619.31;5042052;28;19929;-68
2023/11/28 09:36:23;;;;;;;;;;;;;;;-144.99;92.66;52639.69;5036262;28;19968;-68
2023/11/28 09:38:49;;;;;;;;;;;;;;;-144.99;91.49;52631.53;5029027;28;19926;-69
2023/11/28 09:41:20;;;;;;;;;;;;;;;-144.99;91.31;52607.09;5034601;28;19929;-68
2023/11/28 09:43:48;;;;;;;;;;;;;;;-144.99;89.54;52639.69;5031111;28;20024;-68
2023/11/28 09:46:15;;;;;;;;;;;;;;;-144.99;89.03;52627.47;5042609;28;19933;-69
2023/11/28 09:48:45;;;;;;;;;;;;;;;-144.99;89.39;52607.09;5026321;28;19943;-69
2023/11/28 09:51:13;;;;;;;;;;;;;;;-144.99;89.45;52635.63;5022567;28;20008;-68
2023/11/28 09:53:42;;;;;;;;;;;;;;;-144.99;89.50;52629.50;5036654;28;19978;-70
2023/11/28 09:56:10;;;;;;;;;;;;;;;-144.99;88.93;52615.25;5015896;28;20041;-71
2023/11/28 09:58:37;;;;;;;;;;;;;;;-144.99;88.27;52611.16;5022679;28;20393;-72
2023/11/28 10:01:06;;;;;;;;;;;;;;;-144.99;87.13;52623.38;5022465;28;19929;-69
2023/11/28 10:03:32;;;;;;;;;;;;;;;-144.99;85.91;52676.38;5023538;28;20382;-69
2023/11/28 10:05:59;;;;;;;;;;;;;;;-144.99;85.50;52598.94;5021001;28;19970;-70
2023/11/28 10:08:27;;;;;;;;;;;;;;;-144.99;85.73;52643.78;5036832;28;19937;-70
2023/11/28 10:10:57;;;;;;;;;;;;;;;-144.99;86.73;52619.31;5022863;28;19973;-71
2023/11/28 10:13:24;;;;;;;;;;;;;;;-144.99;87.42;52594.84;5029818;28;19925;-70
2023/11/28 10:15:52;;;;;;;;;;;;;;;-144.99;87.89;52656.00;5024599;28;19992;-71
2023/11/28 10:18:20;;;;;;;;;;;;;;;-144.99;88.27;52651.94;5031235;28;19935;-72
2023/11/28 10:20:46;;;;;;;;;;;;;;;-144.99;88.75;52598.94;5013778;28;19926;-70
2023/11/28 10:23:15;;;;;;;;;;;;;;;-144.99;89.02;52639.69;5032966;28;19990;-70
2023/11/28 10:25:42;;;;;;;;;;;;;;;-144.99;89.02;52656.00;5016936;28;19968;-70
2023/11/28 10:28:13;;;;;;;;;;;;;;;-144.99;88.90;52598.94;5026373;28;19961;-70
2023/11/28 10:30:40;;;;;;;;;;;;;;;-144.99;88.92;52631.53;5012215;28;19937;-71
2023/11/28 10:33:07;;;;;;;;;;;;;;;-144.99;89.27;52658.03;5014260;28;19975;-72
2023/11/28 10:35:41;;;;;;;;;;;;;;;-144.99;89.02;52639.69;5026789;28;19929;-71
2023/11/28 10:38:11;;;;;;;;;;;;;;;-144.99;89.16;52615.25;5024416;28;20835;-71
2023/11/28 10:40:38;;;;;;;;;;;;;;;-144.99;89.42;52639.69;5018607;28;19929;-70
2023/11/28 10:43:06;;;;;;;;;;;;;;;-144.99;89.39;52627.47;5027546;28;20336;-71
2023/11/28 10:45:35;;;;;;;;;;;;;;;-144.99;89.61;52631.53;5033879;28;19929;-71
2023/11/28 10:48:02;;;;;;;;;;;;;;;-144.99;89.44;52615.25;5015641;28;20727;-70
2023/11/28 10:50:29;;;;;;;;;;;;;;;-144.99;89.11;52647.84;5025444;28;19929;-72
2023/11/28 10:52:58;;;;;;;;;;;;;;;-144.99;88.72;52656.00;5013103;28;19969;-70
2023/11/28 10:55:27;;;;;;;;;;;;;;;-144.99;88.92;52660.09;5009157;28;20310;-69
2023/11/28 10:57:58;;;;;;;;;;;;;;;-144.99;88.37;52656.00;5021131;28;19995;-70
2023/11/28 11:00:26;;;;;;;;;;;;;;;-144.99;88.26;52611.16;5022472;28;19975;-70
2023/11/28 11:02:54;;;;;;;;;;;;;;;-144.99;88.06;52613.19;5025903;28;19975;-69
2023/11/28 11:05:21;;;;;;;;;;;;;;;-144.99;87.80;52643.78;5024367;28;19928;-70
2023/11/28 11:07:49;;;;;;;;;;;;;;;-144.99;87.69;52623.38;5028908;28;20311;-69
2023/11/28 11:10:16;;;;;;;;;;;;;;;-144.99;87.63;52643.78;5031950;28;19976;-69
2023/11/28 11:12:45;;;;;;;;;;;;;;;-144.99;87.32;52623.38;5013599;28;19936;-70
2023/11/28 11:15:18;;;;;;;;;;;;;;;-144.99;87.63;52639.69;5033898;28;20348;-70
2023/11/28 11:17:49;;;;;;;;;;;;;;;-144.99;87.93;52639.69;5017776;28;19928;-71
2023/11/28 11:20:18;;;;;;;;;;;;;;;-144.99;88.08;52615.25;5031168;28;19929;-70
2023/11/28 11:22:47;;;;;;;;;;;;;;;-144.99;88.67;52647.84;5026242;28;20238;-71
2023/11/28 11:25:14;;;;;;;;;;;;;;;-144.99;88.39;52662.13;5028222;28;20100;-69
2023/11/28 11:27:40;;;;;;;;;;;;;;;-144.99;88.32;52635.63;5021610;28;20043;-69
2023/11/28 11:30:08;;;;;;;;;;;;;;;-144.99;88.37;52686.59;5027615;28;20376;-69
2023/11/28 11:32:35;;;;;;;;;;;;;;;-144.99;88.00;52664.16;5020583;28;19935;-71
2023/11/28 11:35:04;;;;;;;;;;;;;;;-144.99;88.14;52668.22;5021521;28;19933;-70
2023/11/28 11:37:32;;;;;;;;;;;;;;;-144.99;87.91;52635.63;5026784;28;20289;-70
2023/11/28 11:39:59;;;;;;;;;;;;;;;-144.99;87.49;52656.00;5026971;28;19932;-69
2023/11/28 11:42:27;;;;;;;;;;;;;;;-144.99;86.95;52664.16;5029120;28;19937;-71
2023/11/28 11:44:56;;;;;;;;;;;;;;;-144.99;86.24;52627.47;5024155;28;19932;-69
2023/11/28 11:47:23;;;;;;;;;;;;;;;-144.99;85.20;52615.25;5022786;28;19929;-70
2023/11/28 11:49:50;;;;;;;;;;;;;;;-144.99;84.45;52611.16;5030645;28;20026;-70
2023/11/28 11:52:17;;;;;;;;;;;;;;;-144.99;84.22;52627.47;5020537;28;20075;-70
2023/11/28 11:54:47;;;;;;;;;;;;;;;-144.99;84.62;52562.25;5012791;28;20473;-71
2023/11/28 11:57:14;;;;;;;;;;;;;;;-144.99;81.93;52545.94;5029478;28;19929;-69
2023/11/28 11:59:41;;;;;;;;;;;;;;;-144.99;81.00;52494.97;5018371;28;20358;-70
2023/11/28 12:02:08;;;;;;;;;;;;;;;-144.99;77.30;52572.44;5022701;28;20041;-70
2023/11/28 12:04:40;;;;;;;;;;;;;;;-144.99;75.66;52382.88;5015878;28;20048;-70
2023/11/28 12:07:07;;;;;;;;;;;;;;;-144.99;73.27;52497.00;5025635;28;19929;-69
2023/11/28 12:09:34;;;;;;;;;;;;;;;-144.99;68.84;52401.22;5029535;28;19983;-71
2023/11/28 12:12:04;;;;;;;;;;;;;;;-144.99;65.50;52325.81;5024304;28;20116;-69
2023/11/28 12:14:31;;;;;;;;;;;;;;;-144.99;61.98;52354.34;5022293;28;19931;-68
2023/11/28 12:16:58;;;;;;;;;;;;;;;-144.99;60.90;52370.63;5017141;28;20011;-68
2023/11/28 12:19:24;;;;;;;;;;;;;;;-144.99;59.46;52280.97;5023802;28;19929;-68